createdAt,value
2018-08-31T00:02:17.726Z,96.60
2018-08-31T00:04:58.072Z,96.70
2018-08-31T00:09:41.938Z,96.70
2018-08-31T00:12:24.097Z,96.70
2018-08-31T00:14:52.389Z,96.60
2018-08-31T00:17:20.737Z,96.70
2018-08-31T00:19:48.997Z,96.70
2018-08-31T00:22:17.289Z,96.70
2018-08-31T00:25:00.633Z,96.80
2018-08-31T00:27:40.016Z,96.80
2018-08-31T00:30:19.613Z,96.80
2018-08-31T00:33:11.461Z,96.80
2018-08-31T00:38:56.649Z,96.80
2018-08-31T00:41:39.181Z,96.80
2018-08-31T00:44:14.685Z,96.60
2018-08-31T00:46:42.980Z,96.70
2018-08-31T00:49:11.251Z,96.70
2018-08-31T00:51:39.616Z,96.80
2018-08-31T00:54:07.908Z,96.80
2018-08-31T00:56:36.197Z,96.80
2018-08-31T00:59:04.500Z,96.90
2018-08-31T01:01:32.785Z,96.90
2018-08-31T01:04:01.041Z,96.90
2018-08-31T01:06:29.304Z,97.00
2018-08-31T01:08:57.577Z,97.00
2018-08-31T01:11:25.889Z,97.00
2018-08-31T01:13:54.216Z,97.00
2018-08-31T01:16:22.441Z,97.10
2018-08-31T01:18:50.696Z,97.10
2018-08-31T01:21:18.956Z,97.20
2018-08-31T01:23:47.232Z,97.10
2018-08-31T01:26:15.581Z,97.10
2018-08-31T01:28:43.822Z,97.20
2018-08-31T01:31:12.073Z,97.20
2018-08-31T01:33:40.700Z,97.30
2018-08-31T01:36:09.136Z,97.30
2018-08-31T01:38:37.410Z,97.30
2018-08-31T01:41:05.701Z,97.30
2018-08-31T01:43:33.994Z,97.10
2018-08-31T01:46:02.305Z,97.30
2018-08-31T01:48:30.582Z,97.30
2018-08-31T01:51:04.182Z,97.30
2018-08-31T01:53:32.415Z,97.30
2018-08-31T01:56:00.754Z,97.30
2018-08-31T01:58:29.013Z,97.30
2018-08-31T02:00:57.314Z,97.30
2018-08-31T02:03:25.680Z,97.30
2018-08-31T02:05:54.053Z,97.30
2018-08-31T02:08:22.480Z,97.30
2018-08-31T02:10:50.868Z,97.30
2018-08-31T02:13:19.396Z,97.40
2018-08-31T02:15:47.775Z,97.80
2018-08-31T02:18:16.117Z,97.80
2018-08-31T02:20:44.487Z,97.90
2018-08-31T02:23:12.848Z,97.90
2018-08-31T02:25:41.440Z,97.90
2018-08-31T02:28:09.812Z,97.90
2018-08-31T02:30:38.176Z,98.00
2018-08-31T02:33:07.160Z,97.90
2018-08-31T02:35:35.623Z,98.00
2018-08-31T02:38:03.980Z,98.00
2018-08-31T02:40:32.333Z,98.00
2018-08-31T02:43:03.791Z,98.00
2018-08-31T02:45:32.262Z,98.00
2018-08-31T02:48:00.640Z,98.00
2018-08-31T02:50:28.973Z,98.00
2018-08-31T02:52:57.395Z,98.00
2018-08-31T02:55:25.755Z,98.00
2018-08-31T02:57:54.507Z,98.00
2018-08-31T03:00:22.750Z,98.00
2018-08-31T03:02:51.145Z,97.90
2018-08-31T03:05:19.443Z,97.90
2018-08-31T03:07:47.740Z,97.90
2018-08-31T03:10:16.054Z,98.00
2018-08-31T03:12:44.300Z,98.10
2018-08-31T03:15:13.008Z,98.10
2018-08-31T03:17:41.396Z,98.10
2018-08-31T03:20:09.740Z,98.00
2018-08-31T03:22:38.056Z,98.10
2018-08-31T03:25:06.440Z,98.10
2018-08-31T03:27:34.728Z,98.10
2018-08-31T03:30:03.029Z,98.10
2018-08-31T03:32:31.284Z,98.20
2018-08-31T03:34:59.622Z,98.20
2018-08-31T03:37:28.035Z,98.20
2018-08-31T03:39:56.292Z,98.20
2018-08-31T03:42:24.569Z,98.30
2018-08-31T03:44:53.182Z,98.30
2018-08-31T03:47:21.474Z,98.30
2018-08-31T03:49:49.725Z,98.30
2018-08-31T03:52:18.000Z,98.30
2018-08-31T03:54:46.380Z,98.20
2018-08-31T03:57:14.637Z,98.30
2018-08-31T03:59:43.010Z,98.30
2018-08-31T04:02:11.552Z,98.30
2018-08-31T04:04:39.868Z,98.30
2018-08-31T04:07:08.131Z,98.30
2018-08-31T04:09:36.405Z,98.20
2018-08-31T04:12:04.776Z,98.30
2018-08-31T04:14:33.050Z,98.30
2018-08-31T04:17:08.064Z,98.30
2018-08-31T04:19:36.347Z,98.30
2018-08-31T04:22:04.625Z,98.20
2018-08-31T04:24:32.881Z,98.30
2018-08-31T04:27:01.149Z,98.30
2018-08-31T04:29:29.397Z,98.30
2018-08-31T04:31:57.720Z,98.40
2018-08-31T04:34:25.969Z,98.40
2018-08-31T04:36:54.450Z,98.40
2018-08-31T04:39:22.716Z,98.50
2018-08-31T04:41:50.981Z,98.50
2018-08-31T04:44:19.450Z,98.50
2018-08-31T04:46:47.743Z,98.50
2018-08-31T04:49:16.043Z,98.50
2018-08-31T04:51:44.297Z,98.50
2018-08-31T04:54:12.569Z,98.50
2018-08-31T04:56:40.820Z,98.50
2018-08-31T04:59:09.093Z,98.50
2018-08-31T05:01:37.664Z,98.50
2018-08-31T05:04:06.390Z,98.60
2018-08-31T05:06:34.809Z,98.60
2018-08-31T05:09:03.154Z,98.60
2018-08-31T05:11:31.410Z,98.60
2018-08-31T05:13:59.705Z,98.70
2018-08-31T05:16:28.271Z,98.70
2018-08-31T05:18:56.557Z,98.80
2018-08-31T05:21:24.846Z,98.80
2018-08-31T05:23:53.121Z,98.80
2018-08-31T05:26:21.477Z,98.90
2018-08-31T05:28:49.774Z,98.90
2018-08-31T05:31:18.039Z,99.00
2018-08-31T05:33:46.341Z,99.00
2018-08-31T05:36:14.586Z,99.10
2018-08-31T05:38:42.885Z,99.10
2018-08-31T05:41:11.156Z,99.10
2018-08-31T05:43:39.549Z,99.20
2018-08-31T05:46:08.018Z,99.20
2018-08-31T05:48:36.292Z,99.20
2018-08-31T05:51:04.553Z,99.30
2018-08-31T05:53:32.939Z,99.30
2018-08-31T05:56:01.209Z,99.40
2018-08-31T05:58:29.484Z,99.50
2018-08-31T06:00:57.737Z,99.50
2018-08-31T06:03:26.014Z,99.60
2018-08-31T06:05:54.518Z,99.60
2018-08-31T06:08:22.797Z,99.20
2018-08-31T06:10:51.222Z,99.30
2018-08-31T06:13:19.493Z,99.40
2018-08-31T06:15:47.797Z,99.50
2018-08-31T06:18:16.073Z,99.50
2018-08-31T06:20:44.350Z,99.50
2018-08-31T06:23:12.629Z,99.60
2018-08-31T06:25:40.865Z,99.60
2018-08-31T06:28:09.188Z,99.70
2018-08-31T06:30:37.469Z,99.70
2018-08-31T06:33:05.732Z,99.80
2018-08-31T06:35:34.049Z,99.90
2018-08-31T06:38:02.437Z,99.90
2018-08-31T06:40:30.728Z,99.90
2018-08-31T06:42:59.020Z,99.90
2018-08-31T06:45:27.417Z,99.90
2018-08-31T06:47:55.724Z,99.90
2018-08-31T06:50:23.984Z,99.90
2018-08-31T06:52:52.226Z,99.90
2018-08-31T06:55:20.548Z,99.90
2018-08-31T06:57:48.877Z,99.90
2018-08-31T07:00:17.133Z,99.90
2018-08-31T07:02:45.481Z,99.90
2018-08-31T07:05:13.736Z,99.90
2018-08-31T07:07:42.813Z,99.80
2018-08-31T07:10:11.250Z,99.80
2018-08-31T07:12:39.577Z,99.70
2018-08-31T07:15:08.021Z,99.70
2018-08-31T07:17:36.438Z,99.60
2018-08-31T07:20:04.889Z,99.50
2018-08-31T07:22:33.142Z,99.40
2018-08-31T07:25:01.405Z,99.20
2018-08-31T07:27:29.669Z,99.10
2018-08-31T07:29:57.943Z,98.80
2018-08-31T07:32:26.215Z,98.60
2018-08-31T07:34:54.490Z,98.50
2018-08-31T07:37:22.769Z,98.30
2018-08-31T07:39:50.989Z,98.10
2018-08-31T07:42:19.255Z,98.10
2018-08-31T07:44:47.512Z,98.20
2018-08-31T07:47:15.794Z,98.30
2018-08-31T07:49:44.102Z,98.00
2018-08-31T07:52:12.389Z,98.00
2018-08-31T07:54:40.837Z,98.00
2018-08-31T07:57:09.111Z,97.10
2018-08-31T07:59:37.508Z,96.00
2018-08-31T08:02:05.944Z,95.20
2018-08-31T08:04:34.257Z,94.80
2018-08-31T08:07:02.704Z,94.30
2018-08-31T08:09:31.113Z,93.30
2018-08-31T08:11:59.395Z,92.90
2018-08-31T08:14:27.709Z,92.20
2018-08-31T08:16:56.010Z,91.60
2018-08-31T08:19:24.296Z,90.90
2018-08-31T08:21:52.722Z,90.30
2018-08-31T08:24:21.013Z,87.90
2018-08-31T08:26:49.308Z,86.90
2018-08-31T08:29:17.560Z,86.00
2018-08-31T08:31:45.833Z,84.50
2018-08-31T08:34:14.201Z,82.90
2018-08-31T08:36:42.541Z,83.20
2018-08-31T08:39:10.833Z,82.30
2018-08-31T08:41:39.121Z,80.90
2018-08-31T08:44:07.801Z,79.90
2018-08-31T08:46:36.093Z,78.40
2018-08-31T08:49:04.454Z,77.30
2018-08-31T08:51:32.741Z,76.50
2018-08-31T08:54:01.004Z,74.50
2018-08-31T08:56:29.468Z,72.90
2018-08-31T08:58:57.744Z,72.90
2018-08-31T09:01:26.046Z,72.30
2018-08-31T09:03:54.393Z,71.60
2018-08-31T09:06:22.747Z,68.70
2018-08-31T09:08:50.982Z,68.20
2018-08-31T09:11:19.237Z,70.30
2018-08-31T09:13:47.526Z,69.70
2018-08-31T09:16:15.853Z,71.40
2018-08-31T09:18:44.153Z,71.80
2018-08-31T09:21:12.386Z,70.20
2018-08-31T09:23:40.717Z,67.80
2018-08-31T09:26:11.585Z,66.90
2018-08-31T09:28:39.857Z,67.20
2018-08-31T09:31:12.089Z,68.20
2018-08-31T09:33:40.529Z,67.50
2018-08-31T09:36:08.928Z,67.30
2018-08-31T09:38:37.490Z,65.50
2018-08-31T09:41:06.156Z,64.50
2018-08-31T09:43:34.412Z,63.20
2018-08-31T09:46:03.041Z,62.60
2018-08-31T09:48:31.587Z,61.70
2018-08-31T09:50:59.840Z,61.10
2018-08-31T09:53:28.176Z,62.10
2018-08-31T09:55:56.722Z,62.00
2018-08-31T09:58:25.745Z,61.70
2018-08-31T10:00:55.352Z,60.40
2018-08-31T10:03:25.567Z,59.30
2018-08-31T10:05:54.857Z,58.60
2018-08-31T10:08:25.029Z,58.00
2018-08-31T10:10:53.894Z,57.80
2018-08-31T10:13:22.425Z,59.00
2018-08-31T10:15:50.696Z,59.70
2018-08-31T10:18:18.969Z,59.60
2018-08-31T10:20:47.242Z,58.90
2018-08-31T10:23:15.519Z,58.60
2018-08-31T10:25:43.770Z,58.10
2018-08-31T10:28:12.101Z,57.70
2018-08-31T10:30:40.365Z,56.40
2018-08-31T10:33:08.580Z,55.50
2018-08-31T10:35:36.864Z,54.70
2018-08-31T10:38:06.980Z,54.50
2018-08-31T10:40:35.459Z,55.50
2018-08-31T10:43:03.760Z,55.50
2018-08-31T10:45:32.013Z,54.20
2018-08-31T10:48:00.289Z,53.80
2018-08-31T10:50:28.533Z,53.40
2018-08-31T10:52:56.824Z,52.20
2018-08-31T10:55:25.273Z,51.10
2018-08-31T10:57:53.521Z,51.30
2018-08-31T11:00:21.841Z,51.40
2018-08-31T11:02:50.134Z,50.10
2018-08-31T11:05:18.498Z,50.90
2018-08-31T11:07:46.833Z,51.50
2018-08-31T11:10:15.096Z,52.60
2018-08-31T11:12:43.487Z,54.00
2018-08-31T11:15:11.734Z,53.60
2018-08-31T11:17:39.912Z,53.50
2018-08-31T11:20:08.240Z,52.30
2018-08-31T11:22:36.526Z,52.50
2018-08-31T11:25:04.895Z,52.10
2018-08-31T11:27:33.153Z,51.60
2018-08-31T11:30:01.457Z,51.00
2018-08-31T11:32:30.158Z,50.40
2018-08-31T11:34:58.413Z,48.90
2018-08-31T11:37:26.941Z,48.20
2018-08-31T11:39:55.272Z,48.80
2018-08-31T11:42:23.740Z,48.10
2018-08-31T11:44:52.060Z,48.10
2018-08-31T11:47:20.357Z,49.20
2018-08-31T11:49:48.657Z,49.10
2018-08-31T11:52:16.994Z,48.50
2018-08-31T11:54:45.312Z,47.70
2018-08-31T11:57:13.659Z,48.40
2018-08-31T11:59:41.956Z,47.70
2018-08-31T12:02:10.293Z,48.20
2018-08-31T12:04:38.569Z,47.40
2018-08-31T12:07:06.836Z,47.50
2018-08-31T12:09:35.103Z,47.50
2018-08-31T12:12:03.361Z,47.20
2018-08-31T12:14:31.622Z,47.40
2018-08-31T12:16:59.859Z,48.00
2018-08-31T12:19:28.155Z,47.20
2018-08-31T12:21:56.401Z,47.10
2018-08-31T12:24:24.663Z,47.00
2018-08-31T12:26:53.067Z,47.30
2018-08-31T12:29:21.418Z,47.90
2018-08-31T12:31:49.805Z,47.00
2018-08-31T12:34:18.124Z,46.80
2018-08-31T12:36:46.477Z,46.70
2018-08-31T12:39:15.115Z,46.60
2018-08-31T12:41:43.427Z,46.80
2018-08-31T12:44:11.837Z,47.20
2018-08-31T12:46:40.114Z,46.90
2018-08-31T12:49:08.391Z,45.90
2018-08-31T12:51:36.653Z,46.30
2018-08-31T12:54:04.938Z,46.70
2018-08-31T12:56:34.343Z,45.10
2018-08-31T12:59:02.618Z,43.80
2018-08-31T13:01:31.133Z,43.60
2018-08-31T13:03:59.412Z,43.90
2018-08-31T13:06:27.795Z,43.60
2018-08-31T13:08:56.097Z,44.10
2018-08-31T13:11:24.373Z,44.50
2018-08-31T13:13:52.692Z,44.80
2018-08-31T13:16:21.181Z,45.10
2018-08-31T13:18:49.548Z,45.30
2018-08-31T13:21:17.852Z,46.30
2018-08-31T13:23:46.096Z,47.70
2018-08-31T13:26:14.408Z,48.20
2018-08-31T13:28:42.752Z,49.10
2018-08-31T13:31:11.141Z,49.30
2018-08-31T13:33:39.453Z,49.50
2018-08-31T13:36:07.996Z,49.50
2018-08-31T13:38:36.401Z,49.80
2018-08-31T13:41:04.670Z,50.50
2018-08-31T13:43:32.959Z,51.00
2018-08-31T13:46:01.201Z,52.10
2018-08-31T13:48:29.461Z,52.90
2018-08-31T13:50:57.753Z,53.60
2018-08-31T13:53:26.045Z,54.60
2018-08-31T13:55:54.285Z,55.10
2018-08-31T13:58:22.565Z,55.70
2018-08-31T14:00:50.884Z,56.30
2018-08-31T14:03:19.135Z,56.90
2018-08-31T14:05:47.448Z,57.10
2018-08-31T14:08:15.927Z,57.40
2018-08-31T14:10:44.274Z,57.70
2018-08-31T14:13:12.721Z,57.70
2018-08-31T14:15:40.969Z,58.00
2018-08-31T14:18:09.220Z,58.40
2018-08-31T14:20:37.500Z,58.50
2018-08-31T14:23:05.782Z,58.70
2018-08-31T14:25:34.066Z,59.10
2018-08-31T14:28:02.330Z,59.40
2018-08-31T14:30:30.609Z,59.60
2018-08-31T14:32:58.869Z,59.90
2018-08-31T14:35:27.167Z,59.60
2018-08-31T14:37:55.491Z,59.70
2018-08-31T14:40:23.801Z,59.90
2018-08-31T14:42:52.093Z,59.60
2018-08-31T14:45:20.383Z,59.60
2018-08-31T14:47:48.636Z,60.10
2018-08-31T14:50:17.110Z,59.80
2018-08-31T14:52:45.413Z,60.00
2018-08-31T14:55:13.751Z,60.20
2018-08-31T14:57:42.065Z,60.40
2018-08-31T15:00:10.390Z,60.00
2018-08-31T15:02:38.852Z,59.90
2018-08-31T15:05:07.121Z,59.80
2018-08-31T15:07:35.364Z,59.90
2018-08-31T15:10:03.678Z,59.80
2018-08-31T15:12:32.105Z,59.70
2018-08-31T15:15:00.312Z,59.70
2018-08-31T15:17:28.584Z,59.80
2018-08-31T15:19:56.909Z,60.00
2018-08-31T15:22:25.157Z,60.90
2018-08-31T15:24:53.419Z,60.70
2018-08-31T15:27:21.656Z,61.00
2018-08-31T15:29:49.876Z,61.40
2018-08-31T15:32:18.249Z,61.10
2018-08-31T15:34:46.576Z,61.20
2018-08-31T15:37:14.878Z,61.60
2018-08-31T15:39:43.233Z,61.90
2018-08-31T15:42:11.475Z,61.90
2018-08-31T15:44:39.709Z,62.00
2018-08-31T15:47:08.108Z,62.10
2018-08-31T15:49:36.646Z,61.90
2018-08-31T15:52:04.853Z,61.70
2018-08-31T15:54:33.152Z,62.20
2018-08-31T15:57:01.400Z,62.30
2018-08-31T15:59:29.676Z,62.60
2018-08-31T16:01:57.981Z,62.50
2018-08-31T16:04:26.224Z,62.40
2018-08-31T16:06:54.500Z,62.80
2018-08-31T16:09:23.122Z,63.10
2018-08-31T16:11:51.185Z,63.20
2018-08-31T16:14:19.456Z,63.40
2018-08-31T16:16:47.745Z,63.50
2018-08-31T16:19:16.033Z,64.10
2018-08-31T16:21:44.317Z,65.20
2018-08-31T16:24:12.588Z,65.40
2018-08-31T16:26:40.821Z,65.50
2018-08-31T16:29:09.128Z,66.00
2018-08-31T16:31:37.476Z,66.00
2018-08-31T16:34:05.780Z,65.90
2018-08-31T16:36:34.437Z,65.90
2018-08-31T16:39:02.721Z,66.00
2018-08-31T16:41:31.005Z,65.90
2018-08-31T16:43:59.286Z,65.80
2018-08-31T16:46:27.570Z,65.80
2018-08-31T16:48:55.925Z,66.10
2018-08-31T16:51:24.222Z,66.60
2018-08-31T16:53:52.473Z,66.70
2018-08-31T16:56:20.828Z,66.40
2018-08-31T16:58:50.092Z,66.50
2018-08-31T17:01:18.340Z,66.40
2018-08-31T17:03:46.630Z,66.80
2018-08-31T17:06:15.056Z,66.90
2018-08-31T17:08:43.384Z,66.90
2018-08-31T17:11:11.810Z,67.10
2018-08-31T17:13:40.094Z,67.20
2018-08-31T17:16:08.397Z,67.40
2018-08-31T17:18:36.676Z,67.70
2018-08-31T17:21:05.028Z,67.90
2018-08-31T17:23:33.331Z,68.30
2018-08-31T17:26:01.612Z,68.00
2018-08-31T17:28:35.309Z,68.00
2018-08-31T17:31:09.029Z,68.00
2018-08-31T17:33:42.768Z,68.40
2018-08-31T17:36:16.337Z,68.50
2018-08-31T17:38:44.580Z,68.30
2018-08-31T17:41:12.848Z,68.40
2018-08-31T17:43:41.134Z,68.40
2018-08-31T17:46:09.441Z,68.80
2018-08-31T17:48:37.705Z,68.90
2018-08-31T17:51:05.964Z,68.90
2018-08-31T17:53:34.327Z,69.30
2018-08-31T17:56:02.623Z,69.40
2018-08-31T17:59:55.558Z,69.40
2018-08-31T18:02:23.797Z,69.70
2018-08-31T18:04:52.065Z,69.60
2018-08-31T18:07:20.469Z,70.20
2018-08-31T18:09:48.949Z,70.80
2018-08-31T18:12:17.201Z,71.00
2018-08-31T18:14:45.459Z,71.40
2018-08-31T18:17:13.721Z,71.60
2018-08-31T18:19:42.029Z,71.70
2018-08-31T18:22:10.317Z,71.70
2018-08-31T18:24:38.695Z,72.40
2018-08-31T18:27:06.948Z,72.80
2018-08-31T18:29:35.220Z,72.90
2018-08-31T18:32:03.632Z,73.00
2018-08-31T18:34:32.021Z,73.20
2018-08-31T18:37:00.355Z,73.20
2018-08-31T18:39:28.636Z,73.40
2018-08-31T18:41:56.903Z,73.50
2018-08-31T18:44:25.230Z,73.70
2018-08-31T18:46:54.190Z,74.00
2018-08-31T18:49:22.357Z,74.10
2018-08-31T18:51:50.653Z,74.60
2018-08-31T18:54:18.925Z,74.60
2018-08-31T18:56:47.184Z,74.50
2018-08-31T18:59:15.486Z,74.80
2018-08-31T19:01:43.757Z,74.70
2018-08-31T19:04:12.085Z,75.10
2018-08-31T19:06:40.325Z,75.60
2018-08-31T19:09:09.355Z,75.60
2018-08-31T19:11:37.602Z,76.00
2018-08-31T19:14:05.904Z,76.50
2018-08-31T19:16:34.198Z,76.50
2018-08-31T19:19:02.623Z,77.10
2018-08-31T19:21:30.885Z,77.60
2018-08-31T19:23:59.252Z,77.90
2018-08-31T19:26:27.539Z,78.00
2018-08-31T19:28:55.821Z,78.00
2018-08-31T19:31:24.333Z,78.40
2018-08-31T19:33:53.400Z,78.60
2018-08-31T19:36:21.665Z,79.50
2018-08-31T19:38:49.951Z,79.30
2018-08-31T19:41:18.282Z,79.50
2018-08-31T19:43:46.685Z,80.10
2018-08-31T19:46:14.944Z,80.40
2018-08-31T19:48:43.224Z,80.30
2018-08-31T19:51:11.498Z,80.50
2018-08-31T19:53:39.831Z,80.80
2018-08-31T19:56:08.071Z,81.00
2018-08-31T19:58:36.336Z,81.10
2018-08-31T20:01:04.638Z,81.60
2018-08-31T20:03:32.908Z,82.00
2018-08-31T20:06:01.351Z,82.30
2018-08-31T20:08:29.617Z,82.70
2018-08-31T20:10:57.881Z,83.00
2018-08-31T20:13:26.261Z,83.30
2018-08-31T20:15:54.527Z,83.70
2018-08-31T20:18:22.824Z,84.10
2018-08-31T20:20:51.088Z,84.30
2018-08-31T20:23:19.572Z,84.50
2018-08-31T20:25:47.875Z,85.00
2018-08-31T20:28:16.259Z,85.00
2018-08-31T20:30:44.575Z,85.00
2018-08-31T20:33:12.923Z,85.30
2018-08-31T20:35:41.248Z,85.50
2018-08-31T20:38:09.501Z,85.80
2018-08-31T20:40:38.026Z,86.00
2018-08-31T20:43:06.497Z,86.30
2018-08-31T20:45:34.741Z,86.60
2018-08-31T20:48:03.033Z,86.60
2018-08-31T20:50:31.310Z,86.80
2018-08-31T20:52:59.648Z,87.20
2018-08-31T20:55:27.914Z,87.40
2018-08-31T20:57:56.261Z,87.60
2018-08-31T21:00:24.603Z,87.80
2018-08-31T21:02:52.864Z,88.10
2018-08-31T21:05:21.226Z,88.30
2018-08-31T21:07:49.521Z,88.40
2018-08-31T21:10:17.882Z,88.60
2018-08-31T21:12:46.158Z,89.50
2018-08-31T21:15:14.453Z,89.10
2018-08-31T21:17:42.797Z,89.10
2018-08-31T21:20:11.294Z,90.10
2018-08-31T21:22:39.581Z,89.30
2018-08-31T21:25:07.898Z,89.60
2018-08-31T21:27:36.157Z,89.80
2018-08-31T21:30:04.429Z,90.00
2018-08-31T21:32:32.710Z,90.00
2018-08-31T21:35:07.668Z,90.10
2018-08-31T21:37:36.161Z,90.30
2018-08-31T21:40:04.933Z,90.30
2018-08-31T21:42:33.228Z,90.30
2018-08-31T21:45:01.537Z,90.30
2018-08-31T21:47:30.505Z,90.60
2018-08-31T21:49:58.881Z,90.30
2018-08-31T21:52:27.184Z,90.30
2018-08-31T21:54:55.509Z,90.30
2018-08-31T21:57:23.894Z,90.40
2018-08-31T21:59:52.578Z,90.40
2018-08-31T22:02:20.892Z,90.40
2018-08-31T22:04:49.192Z,90.40
2018-08-31T22:07:17.507Z,90.40
2018-08-31T22:09:45.764Z,90.50
2018-08-31T22:12:14.047Z,90.40
2018-08-31T22:14:42.572Z,90.40
2018-08-31T22:17:10.868Z,90.40
2018-08-31T22:19:39.192Z,90.50
2018-08-31T22:22:07.501Z,90.50
2018-08-31T22:24:35.809Z,90.50
2018-08-31T22:27:04.345Z,90.50
2018-08-31T22:29:32.639Z,90.50
2018-08-31T22:32:00.908Z,90.50
2018-08-31T22:34:29.246Z,90.50
2018-08-31T22:36:57.627Z,90.50
2018-08-31T22:39:25.985Z,90.50
2018-08-31T22:41:54.297Z,90.50
2018-08-31T22:44:22.572Z,90.60
2018-08-31T22:46:50.832Z,90.60
2018-08-31T22:49:19.097Z,90.60
2018-08-31T22:51:47.374Z,90.60
2018-08-31T22:54:15.631Z,90.60
2018-08-31T22:56:43.956Z,90.70
2018-08-31T22:59:12.217Z,90.70
2018-08-31T23:01:40.500Z,90.70
2018-08-31T23:04:08.748Z,90.70
2018-08-31T23:06:37.125Z,90.70
2018-08-31T23:09:05.723Z,90.70
2018-08-31T23:11:34.025Z,90.70
2018-08-31T23:14:02.328Z,90.70
2018-08-31T23:16:30.653Z,90.60
2018-08-31T23:18:58.880Z,90.60
2018-08-31T23:21:27.223Z,90.60
2018-08-31T23:23:55.474Z,90.70
2018-08-31T23:26:23.712Z,90.70
2018-08-31T23:28:51.949Z,90.80
2018-08-31T23:31:20.220Z,90.90
2018-08-31T23:33:48.516Z,91.00
2018-08-31T23:36:16.808Z,91.10
2018-08-31T23:38:45.159Z,91.20
2018-08-31T23:41:13.448Z,91.30
2018-08-31T23:43:41.924Z,91.30
2018-08-31T23:46:10.227Z,91.50
2018-08-31T23:48:38.505Z,91.60
2018-08-31T23:51:06.848Z,91.70
2018-08-31T23:53:35.153Z,91.80
2018-08-31T23:56:03.449Z,91.70
2018-08-31T23:58:31.708Z,91.70
